createdAt,value
2018-02-13T00:00:16.483Z,75.74
2018-02-13T00:01:19.350Z,75.74
2018-02-13T00:02:25.236Z,76.21
2018-02-13T00:04:21.653Z,76.31
2018-02-13T00:05:18.558Z,76.40
2018-02-13T00:07:03.143Z,76.31
2018-02-13T00:08:03.112Z,76.50
2018-02-13T00:09:03.095Z,76.50
2018-02-13T00:10:03.137Z,76.68
2018-02-13T00:11:03.115Z,76.97
2018-02-13T00:12:03.069Z,77.15
2018-02-13T00:13:03.062Z,77.72
2018-02-13T00:14:03.055Z,77.34
2018-02-13T00:15:03.035Z,77.34
2018-02-13T00:16:03.034Z,78.10
2018-02-13T00:17:03.030Z,78.10
2018-02-13T00:18:03.006Z,78.10
2018-02-13T00:19:05.284Z,78.20
2018-02-13T00:20:02.984Z,78.39
2018-02-13T00:21:02.966Z,78.58
2018-02-13T00:22:02.960Z,80.14
2018-02-13T00:23:02.947Z,80.52
2018-02-13T00:24:02.944Z,81.27
2018-02-13T00:25:02.932Z,80.52
2018-02-13T00:26:02.921Z,80.71
2018-02-13T00:27:02.911Z,80.71
2018-02-13T00:28:02.907Z,81.09
2018-02-13T00:29:02.887Z,80.90
2018-02-13T00:30:02.877Z,81.37
2018-02-13T00:31:02.869Z,81.56
2018-02-13T00:32:02.863Z,81.93
2018-02-13T00:33:02.844Z,81.74
2018-02-13T00:34:02.834Z,82.03
2018-02-13T00:35:02.824Z,82.50
2018-02-13T00:37:24.161Z,82.69
2018-02-13T00:38:23.932Z,82.79
2018-02-13T00:41:18.099Z,82.69
2018-02-13T00:42:17.186Z,82.79
2018-02-13T00:43:17.253Z,82.88
2018-02-13T00:46:10.706Z,82.22
2018-02-13T00:47:10.619Z,82.12
2018-02-13T00:48:10.578Z,82.22
2018-02-13T00:49:10.539Z,81.84
2018-02-13T00:50:10.572Z,81.74
2018-02-13T00:51:10.532Z,82.41
2018-02-13T00:52:10.793Z,82.22
2018-02-13T00:53:10.473Z,82.50
2018-02-13T00:54:10.455Z,83.26
2018-02-13T00:55:10.453Z,83.26
2018-02-13T00:56:10.437Z,82.69
2018-02-13T00:57:10.424Z,82.31
2018-02-13T00:58:10.416Z,82.22
2018-02-13T00:59:10.399Z,83.07
2018-02-13T01:00:10.396Z,83.83
2018-02-13T01:01:10.392Z,82.98
2018-02-13T01:02:10.371Z,82.41
2018-02-13T01:03:10.356Z,82.50
2018-02-13T01:04:10.346Z,82.03
2018-02-13T01:05:10.344Z,81.56
2018-02-13T01:06:10.329Z,81.56
2018-02-13T01:07:10.318Z,80.90
2018-02-13T01:08:10.311Z,80.71
2018-02-13T01:09:10.303Z,80.62
2018-02-13T01:10:10.287Z,81.27
2018-02-13T01:11:10.272Z,80.90
2018-02-13T01:12:10.263Z,80.90
2018-02-13T01:13:10.258Z,81.93
2018-02-13T01:14:10.252Z,82.22
2018-02-13T01:15:10.228Z,83.17
2018-02-13T01:16:10.222Z,83.17
2018-02-13T01:17:10.228Z,82.98
2018-02-13T01:18:10.195Z,83.22
2018-02-13T01:19:10.183Z,83.64
2018-02-13T01:20:10.173Z,83.78
2018-02-13T01:21:10.160Z,83.59
2018-02-13T01:22:10.148Z,84.07
2018-02-13T01:23:10.139Z,84.01
2018-02-13T01:24:10.128Z,83.54
2018-02-13T01:25:10.123Z,83.17
2018-02-13T01:26:10.106Z,83.07
2018-02-13T01:27:10.094Z,82.56
2018-02-13T01:28:10.083Z,83.36
2018-02-13T01:29:10.074Z,82.93
2018-02-13T01:30:10.064Z,83.03
2018-02-13T01:31:10.075Z,84.26
2018-02-13T01:32:10.044Z,84.35
2018-02-13T01:33:10.029Z,83.92
2018-02-13T01:34:10.032Z,83.83
2018-02-13T01:35:10.012Z,83.22
2018-02-13T01:36:09.999Z,83.69
2018-02-13T01:37:09.990Z,84.16
2018-02-13T01:38:09.981Z,83.83
2018-02-13T01:39:09.964Z,82.93
2018-02-13T01:40:09.972Z,83.59
2018-02-13T01:41:09.941Z,84.82
2018-02-13T01:42:09.941Z,85.11
2018-02-13T01:43:09.940Z,85.30
2018-02-13T01:44:09.934Z,84.92
2018-02-13T01:45:09.893Z,85.30
2018-02-13T01:46:09.906Z,85.49
2018-02-13T01:47:09.872Z,85.77
2018-02-13T01:48:09.860Z,86.62
2018-02-13T01:49:18.695Z,86.90
2018-02-13T01:51:03.487Z,86.52
2018-02-13T01:52:03.233Z,85.86
2018-02-13T01:53:03.256Z,86.43
2018-02-13T01:54:03.365Z,86.90
2018-02-13T01:55:03.212Z,87.56
2018-02-13T01:56:03.188Z,87.09
2018-02-13T01:57:03.173Z,86.99
2018-02-13T01:58:03.213Z,87.18
2018-02-13T01:59:03.158Z,87.47
2018-02-13T02:00:03.153Z,87.56
2018-02-13T02:01:03.131Z,87.37
2018-02-13T02:02:03.124Z,87.75
2018-02-13T02:03:03.123Z,87.56
2018-02-13T02:04:03.102Z,86.99
2018-02-13T02:05:03.090Z,85.86
2018-02-13T02:06:03.074Z,85.20
2018-02-13T02:07:03.068Z,85.11
2018-02-13T02:08:03.051Z,85.20
2018-02-13T02:09:03.040Z,85.49
2018-02-13T02:10:03.037Z,85.77
2018-02-13T02:11:03.023Z,85.30
2018-02-13T02:12:03.008Z,85.96
2018-02-13T02:13:03.004Z,86.15
2018-02-13T02:14:02.980Z,86.43
2018-02-13T02:15:02.971Z,85.86
2018-02-13T02:16:02.957Z,85.30
2018-02-13T02:17:02.949Z,85.20
2018-02-13T02:18:02.935Z,85.77
2018-02-13T02:19:02.923Z,86.24
2018-02-13T02:20:02.917Z,86.33
2018-02-13T02:21:02.905Z,85.96
2018-02-13T02:22:02.893Z,85.49
2018-02-13T02:23:02.877Z,85.20
2018-02-13T02:24:02.869Z,85.20
2018-02-13T02:25:02.868Z,85.30
2018-02-13T02:26:02.865Z,85.30
2018-02-13T02:27:02.831Z,84.92
2018-02-13T02:28:02.825Z,84.82
2018-02-13T02:29:02.812Z,84.45
2018-02-13T02:30:02.806Z,84.45
2018-02-13T02:31:02.789Z,84.54
2018-02-13T02:32:02.775Z,84.82
2018-02-13T02:33:02.763Z,86.05
2018-02-13T02:34:02.762Z,85.96
2018-02-13T02:35:02.794Z,86.33
2018-02-13T02:36:02.729Z,86.52
2018-02-13T02:37:02.716Z,87.56
2018-02-13T02:38:02.704Z,87.18
2018-02-13T02:39:02.695Z,86.90
2018-02-13T02:40:02.692Z,87.90
2018-02-13T02:41:02.673Z,88.46
2018-02-13T02:42:02.657Z,88.60
2018-02-13T02:43:02.653Z,88.23
2018-02-13T02:44:02.647Z,87.94
2018-02-13T02:45:02.630Z,88.04
2018-02-13T02:46:02.615Z,88.04
2018-02-13T02:47:02.599Z,88.04
2018-02-13T02:48:02.587Z,88.42
2018-02-13T02:49:02.576Z,88.60
2018-02-13T02:50:02.567Z,88.60
2018-02-13T02:51:02.560Z,88.79
2018-02-13T02:52:02.546Z,87.94
2018-02-13T02:53:02.531Z,88.60
2018-02-13T02:54:02.523Z,89.45
2018-02-13T02:55:02.510Z,89.07
2018-02-13T02:56:02.499Z,89.07
2018-02-13T02:57:02.484Z,88.79
2018-02-13T02:58:02.469Z,88.13
2018-02-13T02:59:02.458Z,88.42
2018-02-13T03:00:02.450Z,87.85
2018-02-13T03:01:02.504Z,87.94
2018-02-13T03:02:02.426Z,87.94
2018-02-13T03:04:23.491Z,86.99
2018-02-13T03:24:02.429Z,87.94
2018-02-13T03:25:01.967Z,87.47
2018-02-13T03:26:02.276Z,86.71
2018-02-13T03:27:00.395Z,86.62
2018-02-13T03:28:01.584Z,86.71
2018-02-13T03:29:00.174Z,86.43
2018-02-13T03:29:59.945Z,86.99
2018-02-13T03:31:00.030Z,86.99
2018-02-13T03:31:59.990Z,86.99
2018-02-13T03:32:59.979Z,87.18
2018-02-13T03:34:10.102Z,87.56
2018-02-13T03:35:53.758Z,86.62
2018-02-13T03:36:53.728Z,86.52
2018-02-13T03:39:16.625Z,86.71
2018-02-13T03:42:08.955Z,87.18
2018-02-13T03:43:08.958Z,87.56
2018-02-13T03:44:09.047Z,87.37
2018-02-13T03:45:11.154Z,87.28
2018-02-13T03:46:08.870Z,87.47
2018-02-13T03:47:08.811Z,87.28
2018-02-13T03:48:08.802Z,86.62
2018-02-13T03:49:08.799Z,86.80
2018-02-13T03:50:08.783Z,86.43
2018-02-13T03:51:08.761Z,87.28
2018-02-13T03:52:08.747Z,86.62
2018-02-13T03:53:08.735Z,86.62
2018-02-13T03:54:08.729Z,86.15
2018-02-13T03:55:08.709Z,86.90
2018-02-13T03:56:08.757Z,87.09
2018-02-13T03:57:08.696Z,87.75
2018-02-13T03:58:08.675Z,88.23
2018-02-13T03:59:08.664Z,88.13
2018-02-13T04:00:08.656Z,88.13
2018-02-13T04:01:08.652Z,87.56
2018-02-13T04:02:08.647Z,86.99
2018-02-13T04:03:08.621Z,86.71
2018-02-13T04:04:08.605Z,87.28
2018-02-13T04:05:08.597Z,87.94
2018-02-13T04:06:08.581Z,88.04
2018-02-13T04:07:08.574Z,88.04
2018-02-13T04:08:08.624Z,87.75
2018-02-13T04:09:08.551Z,87.56
2018-02-13T04:10:08.543Z,87.56
2018-02-13T04:11:08.532Z,87.56
2018-02-13T04:12:08.519Z,87.85
2018-02-13T04:13:08.505Z,88.04
2018-02-13T04:14:08.492Z,87.28
2018-02-13T04:15:08.474Z,86.80
2018-02-13T04:16:08.753Z,87.75
2018-02-13T04:17:08.458Z,88.04
2018-02-13T04:18:08.442Z,87.94
2018-02-13T04:19:08.459Z,87.94
2018-02-13T04:20:08.419Z,87.85
2018-02-13T04:21:08.429Z,86.80
2018-02-13T04:22:08.395Z,87.66
2018-02-13T04:23:08.392Z,87.66
2018-02-13T04:24:08.413Z,86.52
2018-02-13T04:25:08.363Z,87.18
2018-02-13T04:26:08.347Z,87.75
2018-02-13T04:27:08.377Z,88.04
2018-02-13T04:28:08.329Z,88.23
2018-02-13T04:29:08.335Z,87.66
2018-02-13T04:30:08.306Z,88.04
2018-02-13T04:31:08.288Z,88.60
2018-02-13T04:32:08.287Z,88.89
2018-02-13T04:33:08.273Z,88.42
2018-02-13T04:34:08.252Z,88.23
2018-02-13T04:35:08.242Z,88.89
2018-02-13T04:36:08.229Z,89.36
2018-02-13T04:37:08.220Z,89.36
2018-02-13T04:38:08.208Z,90.02
2018-02-13T04:39:08.201Z,90.68
2018-02-13T04:40:08.183Z,90.68
2018-02-13T04:41:08.179Z,90.59
2018-02-13T04:42:08.240Z,89.73
2018-02-13T04:43:08.170Z,89.36
2018-02-13T04:44:08.136Z,89.07
2018-02-13T04:45:08.131Z,88.79
2018-02-13T04:46:08.110Z,88.79
2018-02-13T04:47:08.100Z,88.79
2018-02-13T04:48:08.089Z,88.60
2018-02-13T04:49:08.073Z,87.94
2018-02-13T04:50:08.060Z,88.13
2018-02-13T04:51:08.098Z,87.94
2018-02-13T04:52:08.048Z,88.42
2018-02-13T04:53:08.070Z,89.17
2018-02-13T04:54:08.018Z,89.07
2018-02-13T04:55:08.004Z,90.02
2018-02-13T04:56:07.996Z,90.30
2018-02-13T04:57:07.981Z,90.21
2018-02-13T04:58:07.969Z,90.59
2018-02-13T04:59:07.958Z,90.59
2018-02-13T05:00:07.952Z,90.77
2018-02-13T05:01:07.946Z,90.21
2018-02-13T05:02:07.982Z,90.02
2018-02-13T05:03:07.906Z,90.02
2018-02-13T05:04:07.896Z,89.73
2018-02-13T05:05:07.883Z,89.07
2018-02-13T05:06:07.887Z,88.70
2018-02-13T05:07:07.912Z,88.04
2018-02-13T05:08:07.882Z,88.13
2018-02-13T05:09:07.836Z,88.60
2018-02-13T05:10:07.828Z,88.98
2018-02-13T05:11:07.824Z,89.17
2018-02-13T05:12:07.803Z,89.26
2018-02-13T05:13:07.798Z,90.02
2018-02-13T05:14:16.800Z,90.02
2018-02-13T05:16:11.646Z,90.49
2018-02-13T05:17:01.320Z,90.59
2018-02-13T05:18:01.242Z,90.77
2018-02-13T05:19:01.317Z,90.96
2018-02-13T05:20:01.126Z,90.96
2018-02-13T05:21:01.086Z,90.49
2018-02-13T05:22:01.078Z,89.54
2018-02-13T05:23:01.112Z,89.36
2018-02-13T05:24:01.047Z,88.79
2018-02-13T05:27:05.697Z,89.45
2018-02-13T05:29:26.820Z,87.89
2018-02-13T05:32:19.604Z,88.98
2018-02-13T05:34:33.632Z,88.98
2018-02-13T05:35:30.898Z,89.07
2018-02-13T05:36:30.835Z,88.55
2018-02-13T05:37:30.805Z,88.65
2018-02-13T05:38:30.786Z,88.55
2018-02-13T05:39:31.048Z,88.74
2018-02-13T05:40:30.749Z,88.65
2018-02-13T05:41:30.736Z,88.84
2018-02-13T05:42:30.716Z,89.03
2018-02-13T05:43:30.704Z,89.17
2018-02-13T05:44:30.691Z,90.11
2018-02-13T05:45:30.683Z,89.87
2018-02-13T05:46:30.671Z,89.17
2018-02-13T05:47:30.665Z,88.93
2018-02-13T05:48:30.647Z,88.65
2018-02-13T05:49:30.638Z,89.26
2018-02-13T05:50:30.624Z,90.30
2018-02-13T05:51:30.622Z,90.49
2018-02-13T05:52:30.626Z,89.83
2018-02-13T05:53:30.598Z,89.59
2018-02-13T05:54:30.580Z,88.79
2018-02-13T05:57:25.804Z,90.21
2018-02-13T05:58:24.308Z,89.64
2018-02-13T05:59:24.124Z,90.02
2018-02-13T06:00:24.224Z,88.89
2018-02-13T06:01:26.671Z,88.13
2018-02-13T06:02:27.162Z,88.60
2018-02-13T06:03:23.863Z,88.51
2018-02-13T06:04:23.848Z,87.56
2018-02-13T06:05:23.846Z,88.23
2018-02-13T06:06:23.863Z,88.42
2018-02-13T06:07:23.837Z,88.79
2018-02-13T06:08:23.807Z,88.98
2018-02-13T06:09:23.795Z,88.79
2018-02-13T06:10:23.786Z,89.36
2018-02-13T06:11:23.790Z,88.79
2018-02-13T06:12:23.817Z,88.79
2018-02-13T06:13:23.747Z,89.17
2018-02-13T06:14:23.740Z,88.79
2018-02-13T06:15:23.722Z,88.79
2018-02-13T06:16:23.715Z,89.73
2018-02-13T06:17:23.721Z,90.21
2018-02-13T06:18:23.691Z,90.40
2018-02-13T06:19:23.676Z,90.59
2018-02-13T06:20:23.666Z,90.87
2018-02-13T06:21:23.653Z,91.25
2018-02-13T06:22:23.645Z,91.44
2018-02-13T06:23:23.649Z,91.72
2018-02-13T06:24:23.616Z,91.25
2018-02-13T06:25:23.606Z,90.96
2018-02-13T06:26:23.593Z,90.73
2018-02-13T06:27:23.587Z,89.97
2018-02-13T06:28:23.577Z,88.65
2018-02-13T06:29:32.528Z,87.98
2018-02-13T06:31:26.179Z,86.47
2018-02-13T06:32:25.914Z,86.57
2018-02-13T06:34:10.329Z,86.00
2018-02-13T06:35:19.453Z,85.53
2018-02-13T06:37:13.051Z,86.47
2018-02-13T06:38:12.744Z,86.57
2018-02-13T06:39:57.432Z,86.99
2018-02-13T06:40:57.028Z,87.51
2018-02-13T06:41:56.990Z,86.66
2018-02-13T06:42:56.983Z,86.38
2018-02-13T06:43:57.002Z,85.34
2018-02-13T06:44:57.195Z,85.34
2018-02-13T06:45:57.305Z,84.96
2018-02-13T06:46:56.936Z,84.68
2018-02-13T06:47:56.921Z,84.49
2018-02-13T06:48:56.909Z,85.05
2018-02-13T06:49:56.896Z,85.34
2018-02-13T06:50:56.917Z,85.15
2018-02-13T06:51:56.878Z,85.24
2018-02-13T06:52:56.866Z,84.39
2018-02-13T06:53:56.845Z,83.92
2018-02-13T06:54:56.843Z,84.11
2018-02-13T06:55:56.829Z,84.11
2018-02-13T06:56:56.815Z,83.73
2018-02-13T06:57:56.812Z,82.79
2018-02-13T06:58:56.793Z,83.07
2018-02-13T06:59:56.779Z,83.83
2018-02-13T07:00:56.767Z,84.49
2018-02-13T07:01:56.767Z,84.86
2018-02-13T07:02:56.745Z,84.58
2018-02-13T07:03:56.735Z,84.49
2018-02-13T07:04:56.725Z,84.58
2018-02-13T07:05:56.714Z,83.92
2018-02-13T07:06:56.703Z,84.11
2018-02-13T07:07:56.685Z,84.20
2018-02-13T07:08:56.675Z,84.01
2018-02-13T07:09:56.669Z,84.01
2018-02-13T07:10:56.665Z,83.36
2018-02-13T07:11:56.640Z,83.36
2018-02-13T07:12:56.636Z,83.17
2018-02-13T07:13:56.616Z,83.73
2018-02-13T07:14:56.609Z,83.64
2018-02-13T07:15:56.594Z,83.73
2018-02-13T07:16:56.584Z,82.98
2018-02-13T07:17:56.578Z,83.54
2018-02-13T07:18:56.595Z,84.11
2018-02-13T07:19:56.549Z,84.30
2018-02-13T07:20:56.538Z,84.58
2018-02-13T07:21:56.529Z,83.83
2018-02-13T07:22:56.522Z,84.49
2018-02-13T07:23:56.541Z,83.64
2018-02-13T07:24:56.518Z,83.45
2018-02-13T07:25:56.481Z,83.07
2018-02-13T07:26:56.485Z,83.73
2018-02-13T07:27:56.461Z,84.11
2018-02-13T07:28:56.462Z,83.49
2018-02-13T07:29:56.437Z,83.30
2018-02-13T07:30:56.427Z,81.79
2018-02-13T07:31:56.413Z,82.35
2018-02-13T07:32:56.407Z,82.26
2018-02-13T07:33:56.391Z,82.07
2018-02-13T07:34:56.383Z,81.70
2018-02-13T07:35:56.367Z,81.98
2018-02-13T07:36:56.356Z,82.45
2018-02-13T07:37:56.343Z,82.26
2018-02-13T07:38:57.681Z,81.51
2018-02-13T07:39:56.333Z,80.75
2018-02-13T07:40:57.595Z,80.37
2018-02-13T07:41:58.393Z,80.08
2018-02-13T07:42:56.324Z,80.27
2018-02-13T07:43:56.276Z,79.61
2018-02-13T07:44:56.285Z,78.95
2018-02-13T07:45:56.272Z,79.33
2018-02-13T07:46:56.252Z,79.24
2018-02-13T07:47:57.435Z,79.14
2018-02-13T07:48:56.225Z,79.24
2018-02-13T07:49:56.211Z,79.52
2018-02-13T07:50:56.520Z,79.52
2018-02-13T07:51:56.988Z,79.52
2018-02-13T07:52:56.194Z,79.52
2018-02-13T07:54:05.894Z,78.95
2018-02-13T07:55:51.618Z,79.80
2018-02-13T07:57:00.767Z,79.99
2018-02-13T07:58:47.380Z,80.46
2018-02-13T07:59:44.596Z,80.65
2018-02-13T08:00:44.593Z,80.84
2018-02-13T08:01:44.573Z,80.84
2018-02-13T08:02:44.585Z,80.84
2018-02-13T08:03:50.849Z,80.75
2018-02-13T08:04:44.734Z,80.46
2018-02-13T08:05:44.523Z,80.27
2018-02-13T08:06:45.936Z,79.90
2018-02-13T08:07:45.136Z,80.37
2018-02-13T08:08:44.483Z,80.37
2018-02-13T08:09:44.473Z,79.99
2018-02-13T08:10:44.466Z,79.52
2018-02-13T08:11:44.813Z,78.86
2018-02-13T08:12:54.011Z,78.67
2018-02-13T08:14:39.068Z,78.95
2018-02-13T08:17:42.808Z,80.65
2018-02-13T08:18:41.031Z,80.65
2018-02-13T08:20:35.461Z,79.80
2018-02-13T08:22:57.870Z,79.99
2018-02-13T08:25:48.955Z,79.24
2018-02-13T08:26:40.319Z,79.14
2018-02-13T08:27:48.231Z,79.05
2018-02-13T08:30:33.652Z,77.53
2018-02-13T08:31:33.713Z,77.29
2018-02-13T08:32:33.860Z,77.20
2018-02-13T08:33:34.197Z,76.63
2018-02-13T08:34:33.749Z,75.68
2018-02-13T08:35:33.574Z,75.87
2018-02-13T08:36:34.309Z,76.34
2018-02-13T08:37:33.541Z,75.68
2018-02-13T08:38:34.207Z,74.17
2018-02-13T08:39:33.522Z,73.94
2018-02-13T08:40:33.846Z,73.69
2018-02-13T08:41:33.517Z,73.50
2018-02-13T08:42:33.499Z,72.75
2018-02-13T08:43:34.712Z,73.50
2018-02-13T08:44:34.264Z,73.32
2018-02-13T08:45:33.454Z,73.41
2018-02-13T08:46:33.449Z,74.26
2018-02-13T08:47:33.568Z,74.36
2018-02-13T08:48:36.185Z,73.41
2018-02-13T08:49:33.417Z,73.60
2018-02-13T08:50:33.427Z,73.69
2018-02-13T08:51:34.117Z,73.88
2018-02-13T08:52:33.383Z,73.32
2018-02-13T08:53:33.374Z,73.32
2018-02-13T08:54:33.371Z,72.47
2018-02-13T08:55:33.350Z,72.85
2018-02-13T08:56:33.341Z,72.47
2018-02-13T08:57:33.345Z,71.90
2018-02-13T08:58:33.333Z,71.42
2018-02-13T08:59:33.317Z,71.42
2018-02-13T09:00:33.373Z,70.57
2018-02-13T09:01:33.915Z,70.76
2018-02-13T09:02:33.274Z,71.52
2018-02-13T09:03:33.267Z,71.42
2018-02-13T09:04:33.255Z,71.23
2018-02-13T09:05:33.243Z,70.39
2018-02-13T09:06:33.237Z,71.42
2018-02-13T09:07:33.223Z,71.42
2018-02-13T09:08:33.212Z,70.86
2018-02-13T09:09:33.320Z,70.48
2018-02-13T09:10:33.200Z,70.39
2018-02-13T09:11:34.945Z,71.14
2018-02-13T09:12:33.173Z,70.67
2018-02-13T09:15:00.632Z,69.82
2018-02-13T09:15:58.053Z,68.96
2018-02-13T09:16:58.048Z,68.40
2018-02-13T09:17:58.034Z,68.59
2018-02-13T09:18:58.054Z,69.06
2018-02-13T09:19:58.242Z,68.96
2018-02-13T09:20:58.008Z,68.87
2018-02-13T09:21:57.989Z,69.06
2018-02-13T09:22:57.978Z,69.38
2018-02-13T09:25:51.541Z,69.76
2018-02-13T09:26:51.401Z,69.57
2018-02-13T09:28:00.147Z,69.19
2018-02-13T09:29:55.122Z,68.52
2018-02-13T09:30:53.730Z,68.43
2018-02-13T09:32:47.420Z,67.77
2018-02-13T09:33:45.549Z,68.33
2018-02-13T09:35:31.718Z,67.30
2018-02-13T09:36:41.383Z,67.77
2018-02-13T09:38:25.081Z,67.96
2018-02-13T09:39:24.804Z,67.68
2018-02-13T09:40:24.775Z,67.20
2018-02-13T09:41:24.915Z,66.92
2018-02-13T09:42:24.798Z,67.20
2018-02-13T09:43:24.869Z,66.63
2018-02-13T09:44:24.733Z,66.82
2018-02-13T09:45:24.747Z,66.73
2018-02-13T09:46:24.716Z,66.53
2018-02-13T09:47:24.716Z,66.35
2018-02-13T09:48:24.696Z,65.88
2018-02-13T09:49:24.690Z,65.88
2018-02-13T09:50:24.675Z,66.44
2018-02-13T09:51:24.672Z,66.53
2018-02-13T09:52:24.651Z,66.09
2018-02-13T09:53:24.648Z,66.19
2018-02-13T09:54:24.634Z,65.72
2018-02-13T09:55:24.624Z,65.81
2018-02-13T09:56:24.619Z,65.06
2018-02-13T09:57:24.641Z,65.34
2018-02-13T09:58:24.595Z,64.96
2018-02-13T09:59:24.591Z,63.73
2018-02-13T10:00:24.570Z,63.54
2018-02-13T10:01:24.573Z,63.26
2018-02-13T10:02:24.554Z,63.26
2018-02-13T10:03:24.547Z,63.07
2018-02-13T10:04:24.576Z,63.92
2018-02-13T10:05:24.522Z,63.35
2018-02-13T10:06:24.512Z,62.31
2018-02-13T10:07:24.520Z,63.07
2018-02-13T10:08:24.522Z,63.07
2018-02-13T10:09:24.488Z,63.26
2018-02-13T10:10:24.471Z,63.07
2018-02-13T10:11:24.464Z,62.50
2018-02-13T10:12:24.449Z,61.93
2018-02-13T10:13:24.442Z,61.83
2018-02-13T10:14:24.441Z,61.87
2018-02-13T10:15:24.426Z,61.68
2018-02-13T10:16:24.410Z,61.74
2018-02-13T10:17:24.403Z,62.91
2018-02-13T10:18:24.392Z,62.34
2018-02-13T10:19:33.151Z,61.74
2018-02-13T10:21:28.333Z,62.05
2018-02-13T10:22:26.209Z,62.15
2018-02-13T10:24:21.015Z,62.24
2018-02-13T10:25:10.654Z,62.24
2018-02-13T10:26:10.671Z,61.40
2018-02-13T10:27:10.635Z,60.73
2018-02-13T10:28:10.680Z,60.54
2018-02-13T10:29:10.869Z,60.35
2018-02-13T10:30:10.606Z,60.06
2018-02-13T10:31:10.591Z,58.74
2018-02-13T10:32:10.585Z,57.89
2018-02-13T10:33:10.606Z,57.32
2018-02-13T10:34:10.561Z,56.94
2018-02-13T10:35:10.557Z,57.42
2018-02-13T10:36:10.546Z,57.23
2018-02-13T10:37:10.536Z,56.18
2018-02-13T10:38:10.522Z,54.67
2018-02-13T10:39:10.521Z,54.19
2018-02-13T10:40:10.512Z,55.07
2018-02-13T10:41:10.495Z,54.19
2018-02-13T10:42:10.494Z,55.45
2018-02-13T10:43:10.475Z,54.69
2018-02-13T10:44:10.467Z,54.03
2018-02-13T10:45:10.463Z,54.22
2018-02-13T10:46:10.444Z,54.41
2018-02-13T10:47:10.435Z,51.66
2018-02-13T10:48:10.430Z,49.29
2018-02-13T10:49:10.420Z,48.25
2018-02-13T10:50:10.409Z,48.54
2018-02-13T10:51:10.399Z,49.01
2018-02-13T10:52:10.390Z,47.77
2018-02-13T10:53:10.383Z,47.02
2018-02-13T10:54:10.373Z,46.73
2018-02-13T10:55:10.362Z,45.88
2018-02-13T10:56:10.391Z,46.16
2018-02-13T10:57:10.347Z,46.54
2018-02-13T10:58:10.335Z,45.12
2018-02-13T10:59:10.328Z,44.65
2018-02-13T11:00:10.316Z,43.88
2018-02-13T11:01:10.312Z,43.32
2018-02-13T11:02:10.297Z,43.23
2018-02-13T11:03:10.288Z,44.46
2018-02-13T11:04:10.280Z,45.69
2018-02-13T11:05:10.272Z,45.31
2018-02-13T11:06:10.266Z,43.88
2018-02-13T11:07:10.252Z,44.27
2018-02-13T11:08:10.245Z,45.21
2018-02-13T11:09:10.231Z,46.16
2018-02-13T11:10:10.224Z,45.78
2018-02-13T11:11:10.218Z,44.84
2018-02-13T11:12:10.219Z,44.55
2018-02-13T11:13:10.196Z,44.65
2018-02-13T11:14:10.187Z,44.17
2018-02-13T11:15:10.178Z,43.60
2018-02-13T11:16:10.170Z,43.88
2018-02-13T11:17:10.164Z,43.60
2018-02-13T11:18:10.150Z,43.04
2018-02-13T11:19:10.143Z,43.51
2018-02-13T11:20:10.135Z,43.23
2018-02-13T11:21:10.129Z,44.08
2018-02-13T11:22:10.128Z,44.65
2018-02-13T11:23:10.105Z,44.65
2018-02-13T11:24:10.099Z,45.21
2018-02-13T11:25:10.092Z,44.55
2018-02-13T11:26:10.080Z,44.08
2018-02-13T11:27:10.067Z,43.32
2018-02-13T11:28:10.069Z,42.56
2018-02-13T11:29:10.072Z,43.51
2018-02-13T11:30:10.050Z,44.27
2018-02-13T11:32:31.069Z,44.74
2018-02-13T11:33:31.038Z,44.84
2018-02-13T11:34:31.038Z,44.36
2018-02-13T11:35:31.045Z,44.36
2018-02-13T11:36:31.230Z,44.36
2018-02-13T11:37:31.021Z,43.88
2018-02-13T11:38:30.996Z,42.66
2018-02-13T11:39:30.983Z,43.13
2018-02-13T11:40:30.972Z,44.36
2018-02-13T11:41:30.965Z,44.36
2018-02-13T11:42:30.956Z,44.27
2018-02-13T11:43:30.950Z,44.74
2018-02-13T11:44:30.939Z,45.59
2018-02-13T11:45:30.953Z,44.27
2018-02-13T11:46:30.922Z,43.60
2018-02-13T11:47:30.916Z,43.34
2018-02-13T11:48:30.925Z,43.04
2018-02-13T11:49:30.894Z,43.04
2018-02-13T11:50:30.920Z,44.17
2018-02-13T11:51:30.876Z,42.75
2018-02-13T11:52:30.869Z,42.01
2018-02-13T11:53:30.860Z,42.47
2018-02-13T11:54:30.853Z,42.58
2018-02-13T11:55:30.841Z,41.99
2018-02-13T11:56:30.835Z,43.05
2018-02-13T11:57:30.827Z,42.86
2018-02-13T11:58:30.836Z,42.49
2018-02-13T11:59:30.820Z,42.49
2018-02-13T12:00:30.801Z,42.27
2018-02-13T12:01:30.790Z,41.89
2018-02-13T12:02:30.784Z,41.35
2018-02-13T12:03:30.776Z,42.11
2018-02-13T12:04:31.003Z,42.68
2018-02-13T12:05:30.765Z,42.11
2018-02-13T12:06:30.746Z,42.01
2018-02-13T12:07:30.739Z,42.30
2018-02-13T12:08:30.732Z,42.49
2018-02-13T12:09:30.722Z,42.77
2018-02-13T12:10:30.716Z,42.58
2018-02-13T12:11:30.733Z,42.39
2018-02-13T12:12:30.698Z,41.92
2018-02-13T12:13:30.694Z,42.39
2018-02-13T12:14:30.679Z,42.96
2018-02-13T12:15:30.672Z,42.96
2018-02-13T12:16:30.664Z,42.68
2018-02-13T12:17:30.661Z,41.54
2018-02-13T12:18:30.720Z,41.33
2018-02-13T12:19:30.637Z,41.82
2018-02-13T12:20:30.684Z,41.82
2018-02-13T12:21:30.619Z,41.52
2018-02-13T12:22:30.645Z,41.42
2018-02-13T12:23:30.607Z,41.54
2018-02-13T12:24:39.061Z,41.82
2018-02-13T12:26:33.411Z,41.82
2018-02-13T12:27:33.175Z,41.16
2018-02-13T12:29:18.912Z,41.82
2018-02-13T12:30:20.465Z,41.25
2018-02-13T12:31:18.778Z,41.54
2018-02-13T12:33:51.329Z,40.69
2018-02-13T12:34:50.645Z,40.40
2018-02-13T12:36:36.454Z,39.92
2018-02-13T12:37:36.498Z,40.12
2018-02-13T12:38:36.204Z,39.83
2018-02-13T12:39:36.469Z,39.92
2018-02-13T12:40:36.021Z,40.02
2018-02-13T12:41:35.998Z,40.31
2018-02-13T12:42:35.992Z,40.40
2018-02-13T12:43:45.271Z,40.97
2018-02-13T12:45:39.753Z,40.59
2018-02-13T12:46:39.529Z,40.97
2018-02-13T12:48:23.963Z,40.88
2018-02-13T12:49:23.405Z,39.45
2018-02-13T12:50:23.221Z,39.36
2018-02-13T12:51:23.055Z,39.07
2018-02-13T12:52:22.937Z,39.26
2018-02-13T12:53:22.909Z,39.36
2018-02-13T12:54:22.956Z,39.64
2018-02-13T12:55:22.876Z,40.12
2018-02-13T12:56:22.871Z,39.26
2018-02-13T12:57:22.850Z,39.64
2018-02-13T12:58:22.849Z,39.83
2018-02-13T12:59:22.839Z,39.92
2018-02-13T13:00:22.886Z,40.02
2018-02-13T13:01:22.829Z,39.73
2018-02-13T13:02:22.817Z,39.17
2018-02-13T13:03:22.805Z,38.69
2018-02-13T13:04:22.799Z,38.79
2018-02-13T13:05:22.805Z,38.98
2018-02-13T13:06:22.790Z,39.54
2018-02-13T13:07:22.783Z,39.64
2018-02-13T13:08:22.765Z,40.21
2018-02-13T13:09:22.757Z,39.07
2018-02-13T13:10:22.748Z,39.17
2018-02-13T13:11:22.734Z,39.36
2018-02-13T13:12:22.730Z,38.98
2018-02-13T13:13:22.723Z,38.79
2018-02-13T13:14:22.712Z,40.12
2018-02-13T13:15:22.701Z,40.12
2018-02-13T13:16:22.695Z,39.92
2018-02-13T13:17:22.725Z,39.18
2018-02-13T13:18:22.687Z,38.90
2018-02-13T13:19:22.670Z,39.37
2018-02-13T13:20:22.693Z,38.98
2018-02-13T13:21:22.659Z,38.98
2018-02-13T13:22:22.646Z,37.93
2018-02-13T13:23:22.641Z,38.69
2018-02-13T13:24:22.662Z,38.60
2018-02-13T13:25:22.646Z,38.69
2018-02-13T13:26:22.636Z,38.98
2018-02-13T13:27:22.650Z,38.98
2018-02-13T13:28:22.642Z,39.17
2018-02-13T13:29:22.645Z,39.57
2018-02-13T13:30:22.571Z,38.60
2018-02-13T13:31:22.622Z,38.69
2018-02-13T13:32:22.603Z,38.60
2018-02-13T13:33:22.580Z,38.60
2018-02-13T13:34:22.545Z,38.89
2018-02-13T13:35:22.545Z,38.98
2018-02-13T13:36:22.564Z,39.07
2018-02-13T13:37:22.540Z,39.45
2018-02-13T13:38:22.520Z,38.79
2018-02-13T13:39:22.508Z,39.07
2018-02-13T13:40:22.512Z,39.26
2018-02-13T13:41:22.518Z,39.45
2018-02-13T13:42:22.535Z,40.12
2018-02-13T13:43:22.505Z,39.95
2018-02-13T13:44:22.466Z,38.71
2018-02-13T13:45:22.576Z,38.90
2018-02-13T13:46:22.497Z,38.62
2018-02-13T13:47:22.502Z,39.00
2018-02-13T13:48:22.460Z,39.00
2018-02-13T13:49:22.512Z,37.74
2018-02-13T13:50:22.476Z,38.22
2018-02-13T13:51:22.422Z,38.90
2018-02-13T13:52:22.415Z,38.53
2018-02-13T13:53:22.414Z,38.81
2018-02-13T13:54:22.402Z,39.09
2018-02-13T13:55:22.434Z,39.00
2018-02-13T13:56:31.078Z,39.18
2018-02-13T13:58:17.463Z,38.43
2018-02-13T13:59:17.563Z,37.95
2018-02-13T14:00:17.160Z,36.51
2018-02-13T14:01:17.139Z,36.80
2018-02-13T14:02:17.337Z,36.91
2018-02-13T14:03:25.214Z,36.72
2018-02-13T14:05:14.100Z,35.85